Time;durP1;ratioP1;P1;durP2;ratioP2;P2;SDS_P1;SDS_P2;PMS_P1;PMS_P2;Temp;Humidity;BMP_temperature;BMP_pressure;BME280_temperature;BME280_humidity;BME280_pressure;Samples;Min_cycle;Max_cycle;Signal;HPM_P1;HPM_P2
2023/07/07 00:04:22;;;;;;;5.88;4.32;;;;;;;18.03;53.29;96862.34;10289800;28;20364;-29
2023/07/07 00:09:24;;;;;;;5.17;4.17;;;;;;;18.08;53.10;96851.41;10309190;28;20109;-30
2023/07/07 00:14:25;;;;;;;10.63;4.60;;;;;;;18.19;53.30;96848.91;10299485;28;20332;-29
2023/07/07 00:19:25;;;;;;;6.03;4.35;;;;;;;18.17;52.95;96850.59;10302050;28;20030;-29
2023/07/07 00:24:26;;;;;;;6.00;4.43;;;;;;;18.18;52.98;96852.28;10298560;28;20038;-30
2023/07/07 00:29:26;;;;;;;5.82;4.53;;;;;;;18.24;52.62;96858.22;10297357;28;20303;-28
2023/07/07 00:34:28;;;;;;;5.07;3.80;;;;;;;18.26;52.52;96853.16;10272799;28;20070;-30
2023/07/07 00:39:28;;;;;;;5.75;4.20;;;;;;;18.28;52.50;96854.00;10286991;28;20046;-30
2023/07/07 00:45:02;;;;;;;6.07;4.00;;;;;;;18.31;52.25;96854.03;10308251;28;20030;-29
2023/07/07 00:50:04;;;;;;;7.47;4.22;;;;;;;18.30;52.08;96847.28;10300742;28;20411;-29
2023/07/07 00:55:05;;;;;;;7.20;4.30;;;;;;;18.31;52.07;96857.41;10292395;28;20451;-29
2023/07/07 01:00:07;;;;;;;5.95;3.95;;;;;;;18.31;52.21;96856.56;10308514;28;20039;-30
2023/07/07 01:05:07;;;;;;;8.82;4.20;;;;;;;18.26;52.08;96864.13;10301782;28;20514;-29
2023/07/07 01:10:08;;;;;;;4.68;3.80;;;;;;;18.06;52.43;96864.88;10299414;28;20372;-29
2023/07/07 01:15:09;;;;;;;8.38;4.35;;;;;;;18.14;51.98;96865.78;10306192;28;20045;-30
2023/07/07 01:20:32;;;;;;;4.65;3.80;;;;;;;18.13;52.04;96859.00;10299971;28;20109;-29
2023/07/07 01:25:36;;;;;;;4.82;4.00;;;;;;;18.19;51.52;96866.66;10299674;28;20035;-31
2023/07/07 01:30:52;;;;;;;4.82;3.85;;;;;;;18.04;51.96;96875.03;10291487;28;20037;-29
2023/07/07 01:35:53;;;;;;;6.73;3.77;;;;;;;18.09;51.60;96867.47;10308827;28;20506;-29
2023/07/07 01:41:07;;;;;;;10.93;4.45;;;;;;;18.09;51.73;96870.81;10299845;28;20384;-30
2023/07/07 01:46:22;;;;;;;4.53;3.30;;;;;;;18.09;51.75;96867.47;10297254;28;20044;-30
2023/07/07 01:51:27;;;;;;;6.18;4.07;;;;;;;18.04;51.72;96862.38;10303391;28;20419;-29
2023/07/07 01:56:30;;;;;;;4.68;4.07;;;;;;;17.90;51.80;96865.69;10293309;28;20031;-29
2023/07/07 02:01:32;;;;;;;5.35;4.07;;;;;;;17.96;51.79;96870.75;10313095;28;20022;-30
2023/07/07 02:06:32;;;;;;;6.90;4.07;;;;;;;18.03;51.59;96870.81;10308749;28;20041;-29
2023/07/07 02:11:34;;;;;;;5.40;3.20;;;;;;;18.00;51.58;96865.72;10309892;28;20033;-29
2023/07/07 02:16:35;;;;;;;4.82;3.20;;;;;;;18.09;51.56;96864.91;10306901;28;20329;-29
2023/07/07 02:21:37;;;;;;;6.35;4.00;;;;;;;18.10;51.54;96869.16;10293172;28;20109;-29
2023/07/07 02:26:38;;;;;;;4.82;3.83;;;;;;;18.07;51.09;96864.06;10305376;28;20057;-29
2023/07/07 02:31:39;;;;;;;4.75;3.65;;;;;;;18.04;50.78;96874.19;10305466;28;20045;-29
2023/07/07 02:36:39;;;;;;;4.87;3.50;;;;;;;17.93;51.07;96863.16;10316531;28;20050;-29
2023/07/07 02:41:39;;;;;;;6.10;4.10;;;;;;;17.87;51.07;96869.06;10311792;28;20286;-29
2023/07/07 02:46:40;;;;;;;5.72;3.67;;;;;;;18.00;50.57;96872.50;10299824;28;20290;-29
2023/07/07 02:51:40;;;;;;;5.87;3.60;;;;;;;18.03;50.70;96869.97;10296543;28;20041;-30
2023/07/07 02:56:41;;;;;;;4.40;3.22;;;;;;;18.00;50.78;96870.78;10294606;28;20801;-29
2023/07/07 03:01:44;;;;;;;5.40;3.70;;;;;;;17.98;50.38;96864.88;10294635;28;20399;-29
2023/07/07 03:06:44;;;;;;;4.93;3.45;;;;;;;18.02;50.61;96860.66;10310468;28;20778;-29
2023/07/07 03:11:45;;;;;;;6.43;3.88;;;;;;;17.99;50.60;96853.91;10296091;28;20039;-29
2023/07/07 03:16:51;;;;;;;5.22;3.72;;;;;;;18.09;50.63;96839.59;10304570;28;20406;-30
2023/07/07 03:21:55;;;;;;;4.90;3.70;;;;;;;17.97;51.01;96849.66;10307830;28;20380;-29
2023/07/07 03:27:03;;;;;;;5.05;4.30;;;;;;;18.01;51.01;96854.75;10306260;28;20110;-29
2023/07/07 03:32:08;;;;;;;4.73;3.77;;;;;;;18.10;50.93;96856.47;10313142;28;20035;-29
2023/07/07 03:37:10;;;;;;;5.68;3.25;;;;;;;18.09;50.79;96870.00;10287419;28;20039;-29
2023/07/07 03:42:10;;;;;;;4.90;3.33;;;;;;;18.01;51.15;96869.09;10293285;28;20026;-29
2023/07/07 03:47:11;;;;;;;5.38;3.88;;;;;;;18.08;50.97;96871.66;10314605;28;20034;-30
2023/07/07 03:52:13;;;;;;;5.28;3.58;;;;;;;18.12;51.07;96873.38;10310251;28;20038;-30
2023/07/07 03:57:13;;;;;;;4.82;3.88;;;;;;;18.04;50.99;96874.19;10315363;28;20042;-29
2023/07/07 04:02:14;;;;;;;5.65;3.58;;;;;;;18.03;51.31;96877.56;10302835;28;20041;-29
2023/07/07 04:07:14;;;;;;;7.28;3.40;;;;;;;18.00;51.24;96878.38;10317158;28;20459;-30
2023/07/07 04:12:15;;;;;;;5.87;3.70;;;;;;;18.03;51.50;96872.50;10301156;28;20117;-29
2023/07/07 04:17:15;;;;;;;5.43;3.40;;;;;;;18.08;51.23;96870.84;10292016;28;20324;-30
2023/07/07 04:22:15;;;;;;;4.80;3.73;;;;;;;18.22;51.54;96879.31;10308598;28;20333;-31
2023/07/07 04:27:16;;;;;;;7.10;3.58;;;;;;;18.21;51.58;96880.16;10323329;28;20323;-30
2023/07/07 04:32:16;;;;;;;5.13;3.73;;;;;;;17.88;52.05;96882.53;10324813;28;20034;-29
2023/07/07 04:37:17;;;;;;;5.70;3.53;;;;;;;18.11;51.94;96883.50;10316805;28;20053;-29
2023/07/07 04:42:17;;;;;;;5.03;3.85;;;;;;;18.09;52.20;96888.56;10306033;28;20698;-29
2023/07/07 04:47:18;;;;;;;4.85;3.70;;;;;;;18.07;52.21;96884.34;10318216;28;20029;-29
2023/07/07 04:52:18;;;;;;;7.83;4.33;;;;;;;18.12;52.44;96886.06;10341224;28;20045;-29
2023/07/07 04:57:18;;;;;;;7.57;4.20;;;;;;;18.55;51.75;96894.66;10317893;28;20373;-30
2023/07/07 05:02:22;;;;;;;8.75;3.85;;;;;;;18.77;51.64;96893.88;10314410;28;20502;-29
2023/07/07 05:07:25;;;;;;;8.77;4.18;;;;;;;18.90;50.82;96904.03;10315568;28;20038;-29
2023/07/07 05:12:25;;;;;;;6.45;3.75;;;;;;;19.11;51.42;96899.00;10329238;28;20038;-30
2023/07/07 05:17:25;;;;;;;7.73;3.93;;;;;;;19.22;51.37;96896.47;10325291;28;20042;-29
2023/07/07 05:22:26;;;;;;;6.03;4.10;;;;;;;19.19;51.51;96892.22;10301314;28;20037;-29
2023/07/07 05:27:26;;;;;;;14.40;3.70;;;;;;;19.17;51.04;96903.22;10314078;28;20293;-30
2023/07/07 05:32:26;;;;;;;5.83;3.60;;;;;;;19.16;51.16;96912.50;10311845;28;20059;-30
2023/07/07 05:37:27;;;;;;;6.33;3.67;;;;;;;19.16;51.23;96911.69;10305735;28;20285;-29
2023/07/07 05:42:28;;;;;;;6.67;3.40;;;;;;;19.18;51.55;96915.06;10317965;28;20286;-29
2023/07/07 05:47:28;;;;;;;4.13;3.25;;;;;;;19.19;51.58;96906.63;10327031;28;20835;-30
2023/07/07 05:52:29;;;;;;;4.88;3.72;;;;;;;19.19;51.61;96916.78;10331026;28;20034;-29
2023/07/07 05:57:29;;;;;;;6.13;3.60;;;;;;;19.22;51.66;96911.69;10297375;28;20042;-29
2023/07/07 06:02:30;;;;;;;4.72;3.15;;;;;;;19.38;51.67;96905.75;10297512;28;20027;-30
2023/07/07 06:07:31;;;;;;;7.60;4.20;;;;;;;19.48;51.85;96909.97;10298272;28;20449;-29
2023/07/07 06:12:35;;;;;;;6.75;4.78;;;;;;;19.43;51.72;96906.63;10297906;28;20343;-29
2023/07/07 06:17:36;;;;;;;6.28;3.90;;;;;;;19.35;51.71;96908.31;10302527;28;20038;-32
2023/07/07 06:22:36;;;;;;;4.63;3.23;;;;;;;19.31;51.70;96904.06;10310870;28;20038;-29
2023/07/07 06:27:36;;;;;;;4.70;2.90;;;;;;;19.30;51.80;96907.47;10317378;28;20296;-29
2023/07/07 06:32:37;;;;;;;5.20;3.10;;;;;;;19.30;51.80;96897.31;10314141;28;20298;-29
2023/07/07 06:37:37;;;;;;;5.65;3.25;;;;;;;19.30;51.77;96900.72;10331827;28;20670;-29
2023/07/07 06:42:38;;;;;;;4.93;3.20;;;;;;;19.29;51.96;96901.56;10331759;28;20280;-30
2023/07/07 06:47:43;;;;;;;4.53;3.03;;;;;;;19.29;51.90;96896.47;10307698;28;20182;-29
2023/07/07 06:52:46;;;;;;;3.47;2.75;;;;;;;19.47;52.22;96893.06;10308434;28;20034;-29
2023/07/07 06:57:46;;;;;;;6.95;3.85;;;;;;;19.58;52.13;96899.00;10323338;28;20023;-30
2023/07/07 07:02:47;;;;;;;4.75;3.30;;;;;;;19.54;52.05;96900.69;10316669;28;20026;-29
2023/07/07 07:07:48;;;;;;;6.05;3.53;;;;;;;19.45;52.02;96890.53;10313540;28;20052;-30
2023/07/07 07:12:48;;;;;;;5.05;3.42;;;;;;;19.39;51.98;96889.69;10307408;28;20036;-29
2023/07/07 07:17:49;;;;;;;5.88;3.28;;;;;;;19.39;51.98;96894.75;10330852;28;20063;-29
2023/07/07 07:22:50;;;;;;;4.20;2.80;;;;;;;19.38;52.00;96895.59;10287640;28;20458;-30
2023/07/07 07:27:50;;;;;;;3.92;2.88;;;;;;;19.38;52.24;96903.22;10311585;28;20031;-30
2023/07/07 07:32:50;;;;;;;3.90;2.88;;;;;;;19.39;52.31;96907.44;10291655;28;20042;-29
2023/07/07 07:37:51;;;;;;;5.35;3.05;;;;;;;19.38;52.31;96913.38;10301823;28;20046;-29
2023/07/07 07:42:51;;;;;;;5.35;3.50;;;;;;;19.57;52.62;96922.66;10311614;28;20045;-30
2023/07/07 07:47:52;;;;;;;5.50;3.10;;;;;;;19.64;52.51;96917.59;10298272;28;20446;-30
2023/07/07 07:52:52;;;;;;;2.90;2.53;;;;;;;19.63;52.29;96920.13;10307545;28;20026;-29
2023/07/07 07:57:53;;;;;;;4.25;3.22;;;;;;;19.54;52.13;96915.06;10322652;28;20042;-33
2023/07/07 08:02:53;;;;;;;5.82;3.47;;;;;;;19.49;52.50;96914.25;10298317;28;20038;-29
2023/07/07 08:07:54;;;;;;;4.13;2.50;;;;;;;19.45;52.26;96910.00;10317312;28;20092;-30
2023/07/07 08:12:54;;;;;;;5.53;3.70;;;;;;;19.44;52.48;96909.13;10317183;28;20293;-29
2023/07/07 08:17:54;;;;;;;4.95;3.33;;;;;;;19.44;52.62;96904.06;10304074;28;20034;-30
2023/07/07 08:22:55;;;;;;;3.47;2.92;;;;;;;19.44;52.69;96913.38;10330436;28;20274;-30
2023/07/07 08:27:55;;;;;;;4.22;2.90;;;;;;;19.43;52.52;96915.06;10322535;28;20031;-30
2023/07/07 08:32:56;;;;;;;3.53;2.88;;;;;;;19.61;52.97;96911.69;10317305;28;20053;-29
2023/07/07 08:37:56;;;;;;;5.13;3.03;;;;;;;19.72;52.85;96920.13;10292710;28;20054;-30
2023/07/07 08:42:57;;;;;;;3.83;2.80;;;;;;;19.68;52.54;96918.44;10294128;28;20290;-29
2023/07/07 08:48:23;;;;;;;4.88;3.42;;;;;;;19.57;52.53;96915.91;10301927;28;20073;-30
2023/07/07 08:53:52;;;;;;;4.18;2.83;;;;;;;19.53;52.74;96913.38;10294319;28;20038;-30
2023/07/07 08:59:14;;;;;;;4.60;2.80;;;;;;;19.50;52.89;96918.47;10297540;28;20031;-29
2023/07/07 09:04:27;;;;;;;3.38;2.97;;;;;;;19.49;52.80;96914.25;10314657;28;20048;-29
2023/07/07 09:09:42;;;;;;;2.97;2.60;;;;;;;19.49;52.91;96909.16;10332575;28;20409;-29
2023/07/07 09:14:47;;;;;;;2.60;2.30;;;;;;;19.48;52.99;96909.97;10332798;28;20033;-29
2023/07/07 09:19:49;;;;;;;3.80;2.90;;;;;;;19.59;53.04;96908.31;10314791;28;20499;-30
2023/07/07 09:24:52;;;;;;;6.47;3.30;;;;;;;19.73;53.58;96898.94;10331203;28;20489;-30
2023/07/07 09:30:02;;;;;;;4.22;2.85;;;;;;;19.75;53.05;96903.16;10335860;28;20495;-29
2023/07/07 09:35:03;;;;;;;3.15;2.85;;;;;;;19.67;53.00;96891.34;10309373;28;20034;-29
2023/07/07 09:40:21;;;;;;;4.82;2.47;;;;;;;19.63;52.90;96889.66;10296860;28;20061;-30
2023/07/07 09:45:30;;;;;;;3.42;2.40;;;;;;;19.57;52.93;96887.13;10332238;28;20049;-29
2023/07/07 09:50:36;;;;;;;4.60;2.75;;;;;;;19.55;53.26;96891.34;10311257;28;20038;-30
2023/07/07 09:55:38;;;;;;;3.70;2.80;;;;;;;19.53;53.25;96887.97;10316895;28;20050;-29
2023/07/07 10:00:39;;;;;;;3.28;2.70;;;;;;;19.53;53.17;96886.31;10317469;28;20118;-29
2023/07/07 10:05:41;;;;;;;3.70;2.58;;;;;;;19.53;53.34;96887.97;10319694;28;20235;-29
2023/07/07 10:10:42;;;;;;;7.70;2.95;;;;;;;19.69;53.42;96874.41;10322699;28;20039;-29
2023/07/07 10:15:54;;;;;;;3.92;2.92;;;;;;;19.82;53.48;96881.13;10322911;28;20030;-30
2023/07/07 10:20:57;;;;;;;3.47;2.75;;;;;;;19.76;53.30;96868.47;10329000;28;20156;-30
2023/07/07 10:25:58;;;;;;;3.63;2.50;;;;;;;19.68;52.80;96875.25;10326076;28;20303;-29
2023/07/07 10:30:58;;;;;;;3.00;2.63;;;;;;;19.64;53.34;96881.19;10313767;28;20031;-29
2023/07/07 10:36:16;;;;;;;4.47;2.60;;;;;;;19.61;53.35;96886.28;10325912;28;20348;-29
2023/07/07 10:41:17;;;;;;;3.05;2.15;;;;;;;19.58;53.21;96881.22;10297793;28;20407;-29
2023/07/07 10:46:17;;;;;;;4.10;3.13;;;;;;;19.59;53.27;96882.91;10295592;28;20035;-29
2023/07/07 10:51:53;;;;;;;7.43;2.30;;;;;;;19.60;53.64;96882.03;10319142;28;20097;-30
2023/07/07 10:57:06;;;;;;;16.23;4.10;;;;;;;19.62;54.43;96875.25;10299766;28;20038;-30
2023/07/07 11:02:22;;;;;;;8.18;3.33;;;;;;;19.82;54.48;96866.75;10329768;28;20122;-29
2023/07/07 11:07:44;;;;;;;4.95;3.13;;;;;;;19.89;54.04;96875.19;10330477;28;20137;-30
2023/07/07 11:13:00;;;;;;;5.47;2.88;;;;;;;19.81;53.93;96866.75;10297744;28;20043;-30
2023/07/07 11:18:22;;;;;;;6.13;2.67;;;;;;;19.74;53.80;96872.69;10318554;28;20026;-30
2023/07/07 11:23:31;;;;;;;6.18;2.80;;;;;;;19.68;53.35;96862.56;10329208;28;20042;-30
2023/07/07 11:28:47;;;;;;;4.40;2.60;;;;;;;19.65;53.91;96862.53;10316112;28;20105;-30
2023/07/07 11:33:48;;;;;;;4.10;2.90;;;;;;;19.63;53.97;96862.56;10316203;28;20047;-30
2023/07/07 11:39:13;;;;;;;4.17;3.10;;;;;;;19.62;53.90;96857.50;10316163;28;20038;-29
2023/07/07 11:44:22;;;;;;;3.78;3.10;;;;;;;19.63;54.10;96859.16;10315920;28;20027;-29
2023/07/07 11:49:46;;;;;;;3.92;2.67;;;;;;;19.77;54.23;96858.28;10332480;28;20046;-30
2023/07/07 11:55:02;;;;;;;3.70;2.60;;;;;;;19.93;54.32;96851.47;10325878;28;20035;-30
2023/07/07 12:00:36;;;;;;;3.05;2.05;;;;;;;19.91;53.95;96853.19;10309986;28;20065;-30
2023/07/07 12:05:38;;;;;;;5.30;2.97;;;;;;;19.79;54.10;96851.53;10305203;28;20502;-29
2023/07/07 12:10:48;;;;;;;4.50;3.33;;;;;;;19.77;54.01;96842.22;10310989;28;20065;-30
2023/07/07 12:16:02;;;;;;;4.68;2.70;;;;;;;19.72;53.94;96837.16;10308409;28;20414;-30
2023/07/07 12:21:17;;;;;;;2.92;2.35;;;;;;;19.68;53.93;96832.91;10302343;28;20037;-30
2023/07/07 12:26:26;;;;;;;3.65;2.60;;;;;;;19.66;54.28;96828.72;10300165;28;20058;-30
2023/07/07 12:31:28;;;;;;;5.03;3.00;;;;;;;19.67;54.16;96825.31;10316399;28;20045;-30
2023/07/07 12:36:29;;;;;;;4.57;2.45;;;;;;;19.66;54.00;96824.44;10314141;28;20093;-30
2023/07/07 12:41:30;;;;;;;4.60;2.63;;;;;;;19.86;54.68;96834.56;10333132;28;20027;-30
2023/07/07 12:46:35;;;;;;;2.92;2.42;;;;;;;19.98;54.62;96826.88;10309521;28;20081;-29
2023/07/07 12:51:37;;;;;;;4.25;2.30;;;;;;;19.94;54.13;96820.94;10307744;28;20414;-29
2023/07/07 12:57:02;;;;;;;3.25;2.53;;;;;;;19.84;54.21;96818.47;10310090;28;20038;-29
2023/07/07 13:02:22;;;;;;;3.90;2.30;;;;;;;19.77;54.16;96821.88;10309532;28;20030;-30
2023/07/07 13:07:29;;;;;;;3.15;2.38;;;;;;;19.77;54.29;96821.88;10325751;28;20110;-30
2023/07/07 13:12:43;;;;;;;5.32;2.80;;;;;;;19.75;54.41;96821.06;10308547;28;20033;-29
2023/07/07 13:17:44;;;;;;;4.78;2.40;;;;;;;19.75;54.25;96808.34;10305647;28;20042;-30
2023/07/07 13:23:02;;;;;;;2.75;2.15;;;;;;;19.73;54.55;96805.81;10301768;28;20058;-30
2023/07/07 13:28:10;;;;;;;4.43;3.22;;;;;;;19.73;54.85;96799.88;10306580;28;20022;-30
2023/07/07 13:33:13;;;;;;;3.47;2.58;;;;;;;19.94;54.76;96794.72;10315582;28;20031;-30
2023/07/07 13:38:17;;;;;;;2.97;2.25;;;;;;;20.02;54.70;96798.06;10312682;28;20057;-29
2023/07/07 13:43:23;;;;;;;5.95;2.58;;;;;;;19.97;54.17;96794.69;10316895;28;20029;-29
2023/07/07 13:48:26;;;;;;;3.72;2.33;;;;;;;19.86;54.49;96791.38;10310242;28;20042;-30
2023/07/07 13:53:27;;;;;;;3.58;2.75;;;;;;;19.83;54.61;96787.13;10335718;28;20489;-29
2023/07/07 13:58:27;;;;;;;3.08;2.50;;;;;;;19.80;54.29;96791.38;10323244;28;20034;-30
2023/07/07 14:03:30;;;;;;;5.77;2.70;;;;;;;19.79;54.87;96789.69;10305044;28;20019;-30
2023/07/07 14:08:33;;;;;;;4.32;2.15;;;;;;;19.77;54.73;96778.69;10348488;28;20790;-30
2023/07/07 14:13:34;;;;;;;2.95;2.45;;;;;;;19.77;54.38;96781.25;10322860;28;20570;-30
2023/07/07 14:18:41;;;;;;;7.18;2.70;;;;;;;19.76;54.54;96774.47;10305291;28;20528;-30
2023/07/07 14:23:45;;;;;;;3.80;2.83;;;;;;;19.97;55.22;96774.34;10321771;28;20038;-29
2023/07/07 14:28:46;;;;;;;3.15;2.30;;;;;;;20.07;55.10;96770.94;10327827;28;20066;-30
2023/07/07 14:33:54;;;;;;;3.13;2.20;;;;;;;20.01;54.61;96765.88;10334621;28;20045;-30
2023/07/07 14:38:57;;;;;;;3.55;2.33;;;;;;;19.92;54.68;96758.31;10320151;28;20199;-29
2023/07/07 14:43:58;;;;;;;5.13;2.80;;;;;;;19.85;54.77;96754.09;10301805;28;20100;-29
2023/07/07 14:49:14;;;;;;;7.60;2.93;;;;;;;19.81;54.69;96748.19;10293550;28;20045;-30
2023/07/07 14:54:17;;;;;;;4.72;2.97;;;;;;;19.79;55.80;96747.34;10304243;28;20522;-29
2023/07/07 14:59:39;;;;;;;7.97;3.15;;;;;;;19.83;55.29;96745.66;10305153;28;20046;-30
2023/07/07 15:04:41;;;;;;;5.10;3.97;;;;;;;19.79;54.74;96739.75;10297667;28;20402;-30
2023/07/07 15:09:42;;;;;;;4.15;2.80;;;;;;;19.90;55.38;96737.13;10289210;28;20038;-30
2023/07/07 15:14:42;;;;;;;10.95;3.03;;;;;;;20.07;56.10;96736.22;10313266;28;20414;-29
2023/07/07 15:19:43;;;;;;;10.00;3.23;;;;;;;20.08;55.45;96724.38;10332434;28;20095;-32
2023/07/07 15:24:43;;;;;;;9.40;3.33;;;;;;;19.99;55.45;96729.44;10328076;28;20042;-30
2023/07/07 15:29:43;;;;;;;11.13;3.70;;;;;;;19.95;55.86;96731.19;10349089;28;20449;-30
2023/07/07 15:34:46;;;;;;;11.20;3.87;;;;;;;19.90;55.18;96716.78;10304860;28;20045;-31
2023/07/07 15:39:47;;;;;;;5.75;3.13;;;;;;;19.87;54.92;96711.75;10327121;28;20705;-32
2023/07/07 15:44:47;;;;;;;5.20;3.33;;;;;;;19.85;55.12;96710.91;10303116;28;20043;-29
2023/07/07 15:49:48;;;;;;;6.93;3.27;;;;;;;19.86;55.14;96710.06;10328611;28;20654;-31
2023/07/07 15:54:50;;;;;;;7.15;3.13;;;;;;;19.85;55.17;96698.22;10325069;28;20380;-29
2023/07/07 15:59:51;;;;;;;7.22;3.08;;;;;;;20.04;56.08;96694.69;10311454;28;20033;-30
2023/07/07 16:04:55;;;;;;;5.57;3.08;;;;;;;20.16;56.16;96687.00;10288986;28;20054;-30
2023/07/07 16:09:56;;;;;;;5.43;2.83;;;;;;;20.11;55.46;96687.03;10333804;28;20035;-30
2023/07/07 16:14:56;;;;;;;4.97;3.50;;;;;;;20.01;55.51;96680.31;10321036;28;20446;-30
2023/07/07 16:20:00;;;;;;;4.30;2.70;;;;;;;19.96;55.65;96676.09;10332985;28;20034;-29
2023/07/07 16:25:01;;;;;;;4.95;3.08;;;;;;;19.93;55.30;96676.97;10317036;28;20282;-29
2023/07/07 16:30:01;;;;;;;5.87;3.33;;;;;;;19.91;55.30;96672.78;10309246;28;20550;-30
2023/07/07 16:35:02;;;;;;;5.25;2.75;;;;;;;19.88;55.29;96662.59;10323185;28;20285;-30
2023/07/07 16:40:15;;;;;;;3.60;2.65;;;;;;;19.88;55.32;96667.69;10320589;28;20125;-30
2023/07/07 16:45:17;;;;;;;7.60;3.97;;;;;;;19.88;55.31;96665.16;10320454;28;20035;-30
2023/07/07 16:50:21;;;;;;;5.20;2.97;;;;;;;19.99;56.05;96660.81;10339047;28;20027;-30
2023/07/07 16:55:22;;;;;;;3.88;2.65;;;;;;;20.14;56.19;96655.69;10319663;28;20065;-29
2023/07/07 17:00:25;;;;;;;3.55;2.58;;;;;;;20.17;55.77;96655.69;10318486;28;20053;-29
2023/07/07 17:05:25;;;;;;;4.32;3.00;;;;;;;20.07;55.87;96649.81;10311820;28;20066;-29
2023/07/07 17:10:30;;;;;;;4.30;2.80;;;;;;;20.01;55.90;96646.44;10322294;28;20369;-30
2023/07/07 17:15:31;;;;;;;4.88;3.05;;;;;;;19.97;55.63;96647.28;10326679;28;20294;-29
2023/07/07 17:20:33;;;;;;;5.88;3.17;;;;;;;19.93;55.47;96640.56;10315548;28;20026;-30
2023/07/07 17:25:34;;;;;;;5.78;2.78;;;;;;;19.92;55.48;96646.50;10316931;28;20041;-30
2023/07/07 17:30:35;;;;;;;4.90;3.03;;;;;;;19.90;55.54;96643.97;10305202;28;20513;-29
2023/07/07 17:35:35;;;;;;;4.88;3.20;;;;;;;19.89;55.59;96647.38;10314238;28;20066;-29
2023/07/07 17:40:38;;;;;;;4.77;2.77;;;;;;;19.91;56.86;96649.91;10307624;28;20045;-30
2023/07/07 17:45:38;;;;;;;3.92;2.78;;;;;;;20.11;56.19;96651.44;10305338;28;20033;-30
2023/07/07 17:50:47;;;;;;;4.60;2.83;;;;;;;20.19;55.91;96653.97;10338465;28;20566;-29
2023/07/07 17:55:47;;;;;;;2.70;2.45;;;;;;;20.10;55.74;96651.47;10331980;28;20034;-29
2023/07/07 18:00:48;;;;;;;3.03;2.45;;;;;;;20.01;55.87;96651.53;10298758;28;20399;-30
2023/07/07 18:05:49;;;;;;;4.00;2.50;;;;;;;19.95;55.56;96654.09;10323013;28;20028;-30
2023/07/07 18:10:49;;;;;;;3.72;2.90;;;;;;;19.93;55.67;96653.28;10330822;28;20034;-30
2023/07/07 18:15:49;;;;;;;3.65;2.45;;;;;;;19.90;55.60;96650.72;10314899;28;20458;-29
2023/07/07 18:20:50;;;;;;;4.80;2.45;;;;;;;19.88;55.83;96647.38;10322084;28;20483;-30
2023/07/07 18:25:50;;;;;;;4.20;2.90;;;;;;;19.88;55.63;96644.81;10318408;28;20031;-30
2023/07/07 18:30:55;;;;;;;4.03;2.43;;;;;;;19.87;55.48;96638.91;10298123;28;20619;-30
2023/07/07 18:35:55;;;;;;;3.63;2.35;;;;;;;20.10;56.32;96648.94;10304456;28;20286;-30
2023/07/07 18:40:55;;;;;;;3.47;2.28;;;;;;;20.23;56.41;96651.38;10317568;28;20026;-31
2023/07/07 18:45:56;;;;;;;3.00;2.30;;;;;;;20.17;55.70;96655.69;10290741;28;20045;-30
2023/07/07 18:50:56;;;;;;;3.17;2.50;;;;;;;20.07;56.00;96659.13;10320015;28;20371;-30
2023/07/07 18:55:57;;;;;;;2.80;2.13;;;;;;;20.00;55.76;96657.47;10321169;28;20285;-29
2023/07/07 19:00:57;;;;;;;3.30;2.33;;;;;;;19.95;55.79;96659.19;10328138;28;20282;-29
2023/07/07 19:05:59;;;;;;;6.32;2.05;;;;;;;19.91;55.86;96667.69;10318577;28;20298;-29
2023/07/07 19:10:59;;;;;;;5.25;2.78;;;;;;;19.90;55.92;96666.84;10319282;28;20034;-30
2023/07/07 19:16:00;;;;;;;6.97;2.50;;;;;;;19.89;55.94;96666.84;10318671;28;20038;-29
2023/07/07 19:21:00;;;;;;;8.48;3.00;;;;;;;19.87;56.02;96671.09;10334661;28;20285;-30
2023/07/07 19:26:01;;;;;;;2.75;2.20;;;;;;;20.00;56.41;96677.78;10327983;28;20057;-30
2023/07/07 19:31:01;;;;;;;4.57;2.77;;;;;;;20.18;56.23;96670.06;10325425;28;20045;-29
2023/07/07 19:36:02;;;;;;;5.10;2.17;;;;;;;20.24;55.80;96680.16;10319035;28;20034;-30
2023/07/07 19:41:04;;;;;;;3.25;2.50;;;;;;;20.13;55.75;96681.94;10332432;28;20455;-30
2023/07/07 19:46:30;;;;;;;6.57;2.72;;;;;;;20.06;55.68;96680.31;10304996;28;20088;-30
2023/07/07 19:51:34;;;;;;;4.13;2.60;;;;;;;20.00;55.80;96687.97;10307832;28;20329;-29
2023/07/07 19:56:35;;;;;;;4.72;2.78;;;;;;;19.95;55.92;96689.66;10303061;28;20427;-28
2023/07/07 20:01:35;;;;;;;5.43;2.42;;;;;;;19.92;55.84;96689.69;10317784;28;20041;-29
2023/07/07 20:06:38;;;;;;;4.13;2.50;;;;;;;19.91;56.09;96685.47;10306631;28;20022;-31
2023/07/07 20:11:39;;;;;;;4.13;2.33;;;;;;;19.99;56.05;96691.31;10296329;28;20294;-29
2023/07/07 20:16:48;;;;;;;3.80;2.30;;;;;;;20.16;56.69;96694.63;10300649;28;20418;-31
2023/07/07 20:21:50;;;;;;;4.15;2.55;;;;;;;20.30;56.66;96701.31;10304375;28;20300;-31
2023/07/07 20:26:52;;;;;;;4.82;2.78;;;;;;;20.22;56.27;96712.38;10298251;28;20043;-30
2023/07/07 20:31:54;;;;;;;4.35;2.08;;;;;;;20.11;56.36;96706.53;10306863;28;20039;-30
2023/07/07 20:36:55;;;;;;;2.30;1.92;;;;;;;20.05;56.13;96701.50;10299206;28;20509;-30
2023/07/07 20:41:55;;;;;;;4.07;2.27;;;;;;;19.99;56.11;96693.88;10299993;28;20096;-30
2023/07/07 20:46:56;;;;;;;5.28;2.40;;;;;;;19.96;56.06;96691.34;10306794;28;20778;-30
2023/07/07 20:51:56;;;;;;;5.00;2.35;;;;;;;19.93;56.25;96697.28;10329730;28;20042;-30
2023/07/07 20:56:57;;;;;;;3.40;2.30;;;;;;;19.91;56.14;96695.63;10322637;28;20034;-30
2023/07/07 21:01:57;;;;;;;3.25;2.47;;;;;;;19.88;55.98;96696.50;10289899;28;20650;-30
2023/07/07 21:06:57;;;;;;;2.47;1.97;;;;;;;20.13;56.93;96705.69;10325519;28;20037;-30
2023/07/07 21:12:00;;;;;;;2.40;1.90;;;;;;;20.26;56.78;96706.44;10315203;28;20301;-29
2023/07/07 21:17:01;;;;;;;2.92;2.20;;;;;;;20.18;56.34;96708.19;10332381;28;20739;-29
2023/07/07 21:22:01;;;;;;;3.17;1.98;;;;;;;20.08;56.23;96701.50;10301758;28;20030;-30
2023/07/07 21:27:02;;;;;;;3.10;2.00;;;;;;;20.01;56.07;96709.97;10297013;28;20070;-30
2023/07/07 21:32:08;;;;;;;3.80;2.47;;;;;;;19.97;56.17;96706.59;10298016;28;20742;-29
2023/07/07 21:37:10;;;;;;;6.03;2.60;;;;;;;19.94;56.20;96704.06;10307507;28;20034;-30
2023/07/07 21:42:11;;;;;;;3.60;2.00;;;;;;;19.93;56.09;96701.56;10304465;28;20034;-30
2023/07/07 21:47:14;;;;;;;3.50;2.60;;;;;;;19.92;56.17;96700.69;10321563;28;20063;-31
2023/07/07 21:52:17;;;;;;;3.05;2.40;;;;;;;19.91;56.39;96713.44;10296782;28;20499;-29
2023/07/07 21:57:32;;;;;;;5.45;2.40;;;;;;;20.11;57.10;96715.00;10306096;28;20050;-29
2023/07/07 22:02:32;;;;;;;3.20;2.35;;;;;;;20.26;57.33;96712.34;10298516;28;20518;-30
2023/07/07 22:07:32;;;;;;;3.23;1.87;;;;;;;20.22;56.81;96705.63;10308626;28;20465;-30
2023/07/07 22:12:33;;;;;;;2.57;2.00;;;;;;;20.10;56.48;96695.53;10316438;28;20306;-30
2023/07/07 22:17:33;;;;;;;3.17;2.40;;;;;;;20.04;56.43;96694.69;10306924;28;20501;-30
2023/07/07 22:22:33;;;;;;;4.53;1.90;;;;;;;19.98;56.34;96709.97;10327995;28;20330;-30
2023/07/07 22:27:34;;;;;;;3.97;2.77;;;;;;;19.96;56.19;96701.53;10297850;28;20270;-30
2023/07/07 22:32:34;;;;;;;2.50;1.83;;;;;;;19.95;55.66;96715.94;10314138;28;20039;-30
2023/07/07 22:37:35;;;;;;;2.47;2.20;;;;;;;19.94;56.11;96726.09;10330162;28;20294;-30
2023/07/07 22:42:36;;;;;;;3.25;2.22;;;;;;;19.93;56.07;96716.78;10300785;28;20296;-30
2023/07/07 22:47:37;;;;;;;2.27;1.80;;;;;;;19.97;57.05;96718.44;10313180;28;20034;-30
2023/07/07 22:52:38;;;;;;;3.78;2.65;;;;;;;20.22;57.36;96720.03;10299397;28;20399;-30
2023/07/07 22:57:38;;;;;;;3.80;2.30;;;;;;;20.30;57.06;96721.66;10301648;28;20057;-29
2023/07/07 23:02:38;;;;;;;2.50;1.90;;;;;;;20.21;56.39;96715.78;10306197;28;20318;-30
2023/07/07 23:07:40;;;;;;;2.27;1.67;;;;;;;20.12;56.45;96720.94;10309261;28;20428;-30
2023/07/07 23:12:42;;;;;;;2.95;1.95;;;;;;;20.03;56.36;96718.41;10298857;28;20037;-29
2023/07/07 23:17:43;;;;;;;4.15;2.15;;;;;;;19.98;56.32;96722.69;10309261;28;20449;-30
2023/07/07 23:22:44;;;;;;;3.42;1.80;;;;;;;19.95;56.29;96720.16;10314072;28;20034;-30
2023/07/07 23:27:49;;;;;;;3.15;1.90;;;;;;;19.94;56.36;96726.09;10310245;28;20045;-29
2023/07/07 23:32:50;;;;;;;2.63;1.90;;;;;;;19.92;56.29;96720.19;10335764;28;20027;-30